createdAt,value
2022-08-27T00:01:41.295Z,8.17
2022-08-27T00:06:55.427Z,9.07
2022-08-27T00:12:11.607Z,8.73
2022-08-27T00:17:24.677Z,10.27
2022-08-27T00:22:35.422Z,9.30
2022-08-27T00:27:43.209Z,11.23
2022-08-27T00:32:46.343Z,11.37
2022-08-27T00:37:50.046Z,10.80
2022-08-27T00:42:53.238Z,10.23
2022-08-27T00:47:59.191Z,11.80
2022-08-27T00:53:26.742Z,15.73
2022-08-27T00:58:31.326Z,14.23
2022-08-27T01:03:42.852Z,20.23
2022-08-27T01:08:51.152Z,24.43
2022-08-27T01:13:59.877Z,23.53
2022-08-27T01:19:10.895Z,31.03
2022-08-27T01:24:41.020Z,29.57
2022-08-27T01:29:44.579Z,31.63
2022-08-27T01:34:48.325Z,31.73
2022-08-27T01:39:51.633Z,34.83
2022-08-27T01:44:58.852Z,39.20
2022-08-27T01:50:02.160Z,37.57
2022-08-27T01:55:07.353Z,41.47
2022-08-27T02:00:21.857Z,37.97
2022-08-27T02:05:24.857Z,42.33
2022-08-27T02:10:35.264Z,41.57
2022-08-27T02:15:39.427Z,44.73
2022-08-27T02:20:44.793Z,43.40
2022-08-27T02:25:47.671Z,45.87
2022-08-27T02:30:50.545Z,43.47
2022-08-27T02:35:53.671Z,45.47
2022-08-27T02:40:56.630Z,47.47
2022-08-27T02:45:59.576Z,50.10
2022-08-27T02:51:02.361Z,45.27
2022-08-27T02:56:06.608Z,52.17
2022-08-27T03:01:13.691Z,48.23
2022-08-27T03:06:16.724Z,50.77
2022-08-27T03:11:19.513Z,51.07
2022-08-27T03:16:22.415Z,57.20
2022-08-27T03:21:26.440Z,64.47
2022-08-27T03:26:32.080Z,59.50
2022-08-27T03:31:35.007Z,56.57
2022-08-27T03:36:37.847Z,65.30
2022-08-27T03:41:54.846Z,61.37
2022-08-27T03:46:58.358Z,64.70
2022-08-27T03:52:01.815Z,60.20
2022-08-27T03:57:05.779Z,57.23
2022-08-27T04:02:08.684Z,65.27
2022-08-27T04:07:11.502Z,66.33
2022-08-27T04:12:17.287Z,52.50
2022-08-27T04:17:20.038Z,66.27
2022-08-27T04:22:23.836Z,59.43
2022-08-27T04:27:27.645Z,56.97
2022-08-27T04:32:30.575Z,58.63
2022-08-27T04:37:37.617Z,53.87
2022-08-27T04:42:40.448Z,57.30
2022-08-27T04:47:43.323Z,50.67
2022-08-27T04:52:46.114Z,55.90
2022-08-27T04:57:50.673Z,47.77
2022-08-27T05:02:53.385Z,53.63
2022-08-27T05:07:56.136Z,50.77
2022-08-27T05:13:00.019Z,46.27
2022-08-27T05:18:03.485Z,46.20
2022-08-27T05:23:06.187Z,43.47
2022-08-27T05:28:10.717Z,48.03
2022-08-27T05:33:36.096Z,49.10
2022-08-27T05:38:45.047Z,45.50
2022-08-27T05:43:50.451Z,48.80
2022-08-27T05:48:56.697Z,50.37
2022-08-27T05:54:06.894Z,52.03
2022-08-27T06:00:01.008Z,55.80
2022-08-27T06:05:05.421Z,56.10
2022-08-27T06:10:09.013Z,57.43
2022-08-27T06:15:12.316Z,62.13
2022-08-27T06:20:17.747Z,58.47
2022-08-27T06:25:20.507Z,65.93
2022-08-27T06:30:23.351Z,56.90
2022-08-27T06:35:27.442Z,54.90
2022-08-27T06:40:32.157Z,60.97
2022-08-27T06:45:39.109Z,66.03
2022-08-27T06:50:43.597Z,64.40
2022-08-27T06:55:48.857Z,62.73
2022-08-27T07:00:51.714Z,62.87
2022-08-27T07:05:54.575Z,70.90
2022-08-27T07:10:58.053Z,64.50
2022-08-27T07:16:09.923Z,64.13
2022-08-27T07:21:13.510Z,68.73
2022-08-27T07:26:17.934Z,65.00
2022-08-27T07:31:23.088Z,62.53
2022-08-27T07:36:26.077Z,63.07
2022-08-27T07:41:30.546Z,62.27
2022-08-27T07:46:37.927Z,60.23
2022-08-27T07:51:42.387Z,60.50
2022-08-27T07:56:54.806Z,61.47
2022-08-27T08:09:18.954Z,46.30
2022-08-27T08:14:22.470Z,51.50
2022-08-27T08:20:27.440Z,50.03
2022-08-27T08:25:35.508Z,58.20
2022-08-27T08:30:44.135Z,46.63
2022-08-27T08:42:19.947Z,55.30
2022-08-27T08:47:36.190Z,56.53
2022-08-27T08:53:10.155Z,50.93
2022-08-27T08:58:35.061Z,58.40
2022-08-27T09:03:54.486Z,54.90
2022-08-27T09:09:08.524Z,55.83
2022-08-27T09:15:09.341Z,59.33
2022-08-27T09:20:20.264Z,52.83
2022-08-27T09:25:26.263Z,49.53
2022-08-27T09:30:32.791Z,48.23
2022-08-27T09:35:45.050Z,52.27
2022-08-27T09:40:52.205Z,58.07
2022-08-27T09:46:17.530Z,55.97
2022-08-27T09:51:34.157Z,65.33
2022-08-27T09:56:56.836Z,54.03
2022-08-27T10:02:12.319Z,53.47
2022-08-27T10:07:36.030Z,48.47
2022-08-27T10:12:48.203Z,56.57
2022-08-27T10:18:12.415Z,52.87
2022-08-27T10:23:36.774Z,55.50
2022-08-27T10:28:46.841Z,55.87
2022-08-27T10:34:31.109Z,55.93
2022-08-27T10:40:12.027Z,58.83
2022-08-27T10:45:42.953Z,54.87
2022-08-27T10:51:00.836Z,56.20
2022-08-27T10:56:33.523Z,58.07
2022-08-27T11:02:09.808Z,60.67
2022-08-27T11:07:38.826Z,54.77
2022-08-27T11:12:46.951Z,52.93
2022-08-27T11:18:00.230Z,40.53
2022-08-27T11:23:15.076Z,52.93
2022-08-27T11:28:29.812Z,49.73
2022-08-27T11:33:36.174Z,39.93
2022-08-27T11:38:39.141Z,50.40
2022-08-27T11:43:43.676Z,44.13
2022-08-27T11:49:00.514Z,42.13
2022-08-27T11:54:10.503Z,40.10
2022-08-27T11:59:23.073Z,40.17
2022-08-27T12:04:32.249Z,38.10
2022-08-27T12:10:29.376Z,39.53
2022-08-27T12:15:55.434Z,39.60
2022-08-27T12:21:22.647Z,36.93
2022-08-27T12:27:05.422Z,32.87
2022-08-27T12:32:36.363Z,13.17
2022-08-27T12:37:51.749Z,14.43
2022-08-27T12:43:14.684Z,14.50
2022-08-27T12:48:25.652Z,15.47
2022-08-27T12:54:06.367Z,17.03
2022-08-27T12:59:24.401Z,17.43
2022-08-27T13:04:41.636Z,19.93
2022-08-27T13:09:47.336Z,27.10
2022-08-27T13:14:57.210Z,29.00
2022-08-27T13:20:02.242Z,30.57
2022-08-27T13:25:07.993Z,30.13
2022-08-27T13:30:18.125Z,37.97
2022-08-27T13:35:37.800Z,35.97
2022-08-27T13:41:10.130Z,42.90
2022-08-27T13:46:30.166Z,45.10
2022-08-27T13:51:48.319Z,44.57
2022-08-27T13:57:10.545Z,56.40
2022-08-27T14:02:42.534Z,48.47
2022-08-27T14:08:18.304Z,49.63
2022-08-27T14:13:24.662Z,51.70
2022-08-27T14:18:57.801Z,45.33
2022-08-27T14:23:59.574Z,44.27
2022-08-27T14:29:03.097Z,51.80
2022-08-27T14:34:15.267Z,40.77
2022-08-27T14:39:18.214Z,40.77
2022-08-27T14:44:24.991Z,37.33
2022-08-27T14:49:31.558Z,34.33
2022-08-27T14:54:35.294Z,35.40
2022-08-27T14:59:39.271Z,38.70
2022-08-27T15:04:44.308Z,31.07
2022-08-27T15:09:50.964Z,28.90
2022-08-27T15:14:54.445Z,16.00
2022-08-27T15:19:57.402Z,15.20
2022-08-27T15:25:02.134Z,15.03
2022-08-27T15:30:09.781Z,11.63
2022-08-27T15:35:19.613Z,10.50
2022-08-27T15:40:23.264Z,9.80
2022-08-27T15:45:27.448Z,9.50
2022-08-27T15:50:32.163Z,11.43
2022-08-27T15:55:38.724Z,16.63
2022-08-27T16:00:43.569Z,12.10
2022-08-27T16:05:50.782Z,12.10
2022-08-27T16:11:07.396Z,12.27
2022-08-27T16:16:22.029Z,13.50
2022-08-27T16:21:43.402Z,14.23
2022-08-27T16:26:57.251Z,15.37
2022-08-27T16:32:14.014Z,16.87
2022-08-27T16:37:21.520Z,17.23
2022-08-27T16:42:30.870Z,22.27
2022-08-27T16:47:55.875Z,22.07
2022-08-27T16:52:58.815Z,24.63
2022-08-27T16:58:02.247Z,28.53
2022-08-27T17:03:11.542Z,11.97
2022-08-27T17:08:19.090Z,9.33
2022-08-27T17:13:28.107Z,7.47
2022-08-27T17:18:31.849Z,7.67
2022-08-27T17:23:36.627Z,8.73
2022-08-27T17:28:41.695Z,9.80
2022-08-27T17:33:47.685Z,10.17
2022-08-27T17:38:51.664Z,9.73
2022-08-27T17:43:58.115Z,8.80
2022-08-27T17:49:01.184Z,9.23
2022-08-27T17:54:06.171Z,11.80
2022-08-27T17:59:09.289Z,12.13
2022-08-27T18:04:18.943Z,10.63
2022-08-27T18:09:22.167Z,13.53
2022-08-27T18:14:25.105Z,12.47
2022-08-27T18:19:28.581Z,10.83
2022-08-27T18:24:32.435Z,13.10
2022-08-27T18:29:35.444Z,13.77
2022-08-27T18:34:38.491Z,9.80
2022-08-27T18:39:44.732Z,9.57
2022-08-27T18:44:47.712Z,11.47
2022-08-27T18:49:50.840Z,10.13
2022-08-27T18:54:54.142Z,11.53
2022-08-27T18:59:57.446Z,13.47
2022-08-27T19:05:07.312Z,15.33
2022-08-27T19:10:12.338Z,21.60
2022-08-27T19:15:17.005Z,21.53
2022-08-27T19:20:20.255Z,20.87
2022-08-27T19:25:23.712Z,22.83
2022-08-27T19:30:26.668Z,24.40
2022-08-27T19:35:29.975Z,29.03
2022-08-27T19:40:33.256Z,29.13
2022-08-27T19:45:40.468Z,28.50
2022-08-27T19:50:52.041Z,32.27
2022-08-27T19:56:07.588Z,27.60
2022-08-27T20:01:27.174Z,19.57
2022-08-27T20:06:44.079Z,18.30
2022-08-27T20:11:58.128Z,14.50
2022-08-27T20:17:09.873Z,14.73
2022-08-27T20:22:21.630Z,14.77
2022-08-27T20:27:31.106Z,13.07
2022-08-27T20:32:35.830Z,18.37
2022-08-27T20:37:46.193Z,25.33
2022-08-27T20:42:51.311Z,28.93
2022-08-27T20:47:55.350Z,31.03
2022-08-27T20:52:58.380Z,29.37
2022-08-27T20:58:19.682Z,28.03
2022-08-27T21:03:31.632Z,20.90
2022-08-27T21:08:39.843Z,20.47
2022-08-27T21:13:55.818Z,20.63
2022-08-27T21:18:59.514Z,28.53
2022-08-27T21:24:02.615Z,26.33
2022-08-27T21:29:06.104Z,29.97
2022-08-27T21:34:09.150Z,32.13
2022-08-27T21:39:12.231Z,34.53
2022-08-27T21:44:15.267Z,37.47
2022-08-27T21:49:18.233Z,44.87
2022-08-27T21:54:21.159Z,40.70
2022-08-27T21:59:26.866Z,44.43
2022-08-27T22:04:43.624Z,48.30
2022-08-27T22:09:47.343Z,43.47
2022-08-27T22:14:50.343Z,44.70
2022-08-27T22:19:53.391Z,46.80
2022-08-27T22:24:56.433Z,45.50
2022-08-27T22:29:59.450Z,51.27
2022-08-27T22:35:02.453Z,44.37
2022-08-27T22:40:08.914Z,48.20
2022-08-27T22:45:26.265Z,46.93
2022-08-27T22:50:29.215Z,46.60
2022-08-27T22:55:32.183Z,48.13
2022-08-27T23:00:37.757Z,48.33
2022-08-27T23:05:42.161Z,42.77
2022-08-27T23:11:01.012Z,40.20
2022-08-27T23:16:28.492Z,46.30
2022-08-27T23:21:41.811Z,45.10
2022-08-27T23:27:14.954Z,36.50
2022-08-27T23:32:24.398Z,38.53
2022-08-27T23:37:36.326Z,39.87
2022-08-27T23:42:44.720Z,39.47
2022-08-27T23:47:47.793Z,37.53
2022-08-27T23:52:51.864Z,37.17
2022-08-27T23:58:00.770Z,28.93
